PWSweather.com
Personal Weather Stations
Station Observations
IHTIMAN1
Neighbourhood 1, IhtimanBG 2050

Neighbourhood 1IhtimanBG 2050

Lat: 42.436852, Lon: 23.817921

Elevation: 2066

Station Type: Oregon Scientific WMR968

http://ihtiman-meteo.com

Latest ConditionsUpdated 8:50:01 PM GMT+02:02 Saturday, Aug 24, 2019
Currently Today's Max Today's Min Today's Average
Temperature 74.7°F23.7°C 89.4°F31.9°C 54.7°F12.6°C 71.4°F21.9°C
Dew Point 51.9°F11.1°C 57.7°F14.3°C 49.6°F9.8°C 53.4°F11.9°C
Winds Calm Calm 8.1 mph -13.0 kmh - - 1.6 mph 2.6 kmh
Wind Gusts -- 15.0 mph24.1 kmh - -
Humidity 45% 91% 29% 58%
Pressure 30.18 in1022.0 mb 30.24 in1024.0 mb 30.12 in1020.0 mb -
Hour Temp Dew Point Humidity Winds Wind Gusts Pressure Precip Precip Rate Daily Precip Total
08:50 PM 74.7°F23.7°C 51.9°F11.1°C 45% Calm Calm -- 30.18 in1022.0 mb - 0.00 in0.0 mm 0.00 in0.0 mm
08:40 PM 75.3°F24.1°C 51.2°F10.7°C 43% 2.3 mph S3.7 kmh S 3.5 mph5.6 kmh 30.18 in1022.0 mb - 0.00 in0.0 mm 0.00 in0.0 mm
08:30 PM 75.6°F24.2°C 51.5°F10.8°C 43% 2.3 mph S3.7 kmh S 3.5 mph5.6 kmh 30.18 in1022.0 mb - 0.00 in0.0 mm 0.00 in0.0 mm
08:20 PM 75.8°F24.3°C 51.1°F10.6°C 42% Calm Calm 2.3 mph3.7 kmh 30.15 in1021.0 mb - 0.00 in0.0 mm 0.00 in0.0 mm
08:10 PM 76.3°F24.6°C 51.5°F10.8°C 42% 1.2 mph E1.9 kmh E 3.5 mph5.6 kmh 30.15 in1021.0 mb - 0.00 in0.0 mm 0.00 in0.0 mm
08:00 PM 76.8°F24.9°C 51.3°F10.7°C 41% Calm Calm -- 30.15 in1021.0 mb - 0.00 in0.0 mm 0.00 in0.0 mm
07:50 PM 77.6°F25.3°C 51.4°F10.8°C 40% Calm Calm -- 30.15 in1021.0 mb - 0.00 in0.0 mm 0.00 in0.0 mm
07:40 PM 78.1°F25.6°C 51.8°F11.0°C 40% 3.5 mph SSW5.6 kmh SSW 3.5 mph5.6 kmh 30.15 in1021.0 mb - 0.00 in0.0 mm 0.00 in0.0 mm
07:30 PM 78.4°F25.8°C 51.4°F10.8°C 39% Calm Calm 3.5 mph5.6 kmh 30.15 in1021.0 mb - 0.00 in0.0 mm 0.00 in0.0 mm
07:20 PM 78.8°F26.0°C 51.0°F10.6°C 38% Calm Calm 2.3 mph3.7 kmh 30.15 in1021.0 mb - 0.00 in0.0 mm 0.00 in0.0 mm
07:10 PM 79.3°F26.3°C 50.8°F10.4°C 37% Calm Calm 3.5 mph5.6 kmh 30.15 in1021.0 mb - 0.00 in0.0 mm 0.00 in0.0 mm
07:00 PM 79.9°F26.6°C 50.5°F10.3°C 36% 1.2 mph ESE1.9 kmh ESE 3.5 mph5.6 kmh 30.15 in1021.0 mb - 0.00 in0.0 mm 0.00 in0.0 mm
06:50 PM 80.4°F26.9°C 50.2°F10.1°C 35% 3.5 mph SE5.6 kmh SE 5.8 mph9.3 kmh 30.15 in1021.0 mb - 0.00 in0.0 mm 0.00 in0.0 mm
06:40 PM 81.0°F27.2°C 49.9°F9.9°C 34% 4.6 mph SE7.4 kmh SE 4.6 mph7.4 kmh 30.15 in1021.0 mb - 0.00 in0.0 mm 0.00 in0.0 mm
06:30 PM 81.6°F27.6°C 49.7°F9.8°C 33% 4.6 mph SSE7.4 kmh SSE 5.8 mph9.3 kmh 30.15 in1021.0 mb - 0.00 in0.0 mm 0.00 in0.0 mm
06:20 PM 82.4°F28.0°C 49.6°F9.8°C 32% 4.6 mph SE7.4 kmh SE 8.1 mph13.0 kmh 30.15 in1021.0 mb - 0.00 in0.0 mm 0.00 in0.0 mm
06:10 PM 83.0°F28.3°C 50.1°F10.1°C 32% 5.8 mph SE9.3 kmh SE 9.2 mph14.8 kmh 30.12 in1020.0 mb - 0.00 in0.0 mm 0.00 in0.0 mm
06:00 PM 83.6°F28.7°C 49.8°F9.9°C 31% 4.6 mph SE7.4 kmh SE 5.8 mph9.3 kmh 30.12 in1020.0 mb - 0.00 in0.0 mm 0.00 in0.0 mm
05:50 PM 84.2°F29.0°C 50.3°F10.2°C 31% 4.6 mph SE7.4 kmh SE 8.1 mph13.0 kmh 30.15 in1021.0 mb - 0.00 in0.0 mm 0.00 in0.0 mm
05:40 PM 84.7°F29.3°C 50.8°F10.4°C 31% 5.8 mph SSE9.3 kmh SSE 8.1 mph13.0 kmh 30.15 in1021.0 mb - 0.00 in0.0 mm 0.00 in0.0 mm
05:30 PM 85.3°F29.6°C 51.3°F10.7°C 31% 4.6 mph SE7.4 kmh SE 8.1 mph13.0 kmh 30.15 in1021.0 mb - 0.00 in0.0 mm 0.00 in0.0 mm
05:20 PM 85.4°F29.7°C 51.3°F10.7°C 31% 6.9 mph SE11.1 kmh SE 10.4 mph16.7 kmh 30.15 in1021.0 mb - 0.00 in0.0 mm 0.00 in0.0 mm
05:10 PM 85.9°F29.9°C 50.9°F10.5°C 30% 5.8 mph SE9.3 kmh SE 10.4 mph16.7 kmh 30.15 in1021.0 mb - 0.00 in0.0 mm 0.00 in0.0 mm
05:00 PM 86.6°F30.3°C 51.5°F10.8°C 30% 6.9 mph S11.1 kmh S 10.4 mph16.7 kmh 30.15 in1021.0 mb - 0.00 in0.0 mm 0.00 in0.0 mm
04:50 PM 86.8°F30.4°C 51.7°F10.9°C 30% 5.8 mph SSE9.3 kmh SSE 11.5 mph18.5 kmh 30.15 in1021.0 mb - 0.00 in0.0 mm 0.00 in0.0 mm
04:40 PM 87.1°F30.6°C 51.9°F11.1°C 30% 6.9 mph SE11.1 kmh SE 5.8 mph9.3 kmh 30.15 in1021.0 mb - 0.00 in0.0 mm 0.00 in0.0 mm
04:30 PM 87.1°F30.6°C 51.9°F11.1°C 30% 8.1 mph SE13.0 kmh SE 8.1 mph13.0 kmh 30.15 in1021.0 mb - 0.00 in0.0 mm 0.00 in0.0 mm
04:20 PM 87.8°F31.0°C 52.5°F11.4°C 30% 4.6 mph S7.4 kmh S 8.1 mph13.0 kmh 30.15 in1021.0 mb - 0.00 in0.0 mm 0.00 in0.0 mm
04:10 PM 88.2°F31.2°C 52.8°F11.6°C 30% 4.6 mph SE7.4 kmh SE 8.1 mph13.0 kmh 30.15 in1021.0 mb - 0.00 in0.0 mm 0.00 in0.0 mm
04:00 PM 89.2°F31.8°C 52.8°F11.6°C 29% 5.8 mph SSE9.3 kmh SSE 9.2 mph14.8 kmh 30.15 in1021.0 mb - 0.00 in0.0 mm 0.00 in0.0 mm
03:50 PM 88.9°F31.6°C 52.5°F11.4°C 29% 8.1 mph S13.0 kmh S 8.1 mph13.0 kmh 30.18 in1022.0 mb - 0.00 in0.0 mm 0.00 in0.0 mm
03:40 PM 89.0°F31.7°C 53.5°F11.9°C 30% 6.9 mph SE11.1 kmh SE 9.2 mph14.8 kmh 30.18 in1022.0 mb - 0.00 in0.0 mm 0.00 in0.0 mm
03:30 PM 88.7°F31.5°C 53.3°F11.8°C 30% 5.8 mph SE9.3 kmh SE 9.2 mph14.8 kmh 30.18 in1022.0 mb - 0.00 in0.0 mm 0.00 in0.0 mm
03:20 PM 89.1°F31.7°C 53.6°F12.0°C 30% 5.8 mph SE9.3 kmh SE 9.2 mph14.8 kmh 30.18 in1022.0 mb - 0.00 in0.0 mm 0.00 in0.0 mm
03:10 PM 89.4°F31.9°C 53.9°F12.2°C 30% 5.8 mph ESE9.3 kmh ESE 15.0 mph24.1 kmh 30.18 in1022.0 mb - 0.00 in0.0 mm 0.00 in0.0 mm
03:00 PM 88.8°F31.6°C 53.4°F11.9°C 30% 4.6 mph SE7.4 kmh SE 8.1 mph13.0 kmh 30.18 in1022.0 mb - 0.00 in0.0 mm 0.00 in0.0 mm
02:50 PM 88.7°F31.5°C 54.2°F12.3°C 31% 5.8 mph SSE9.3 kmh SSE 12.7 mph20.4 kmh 30.18 in1022.0 mb - 0.00 in0.0 mm 0.00 in0.0 mm
02:40 PM 88.6°F31.4°C 54.1°F12.3°C 31% 8.1 mph SE13.0 kmh SE 11.5 mph18.5 kmh 30.18 in1022.0 mb - 0.00 in0.0 mm 0.00 in0.0 mm
02:30 PM 89.2°F31.8°C 54.6°F12.6°C 31% 8.1 mph SE13.0 kmh SE 12.7 mph20.4 kmh 30.18 in1022.0 mb - 0.00 in0.0 mm 0.00 in0.0 mm
02:20 PM 88.8°F31.6°C 54.2°F12.3°C 31% 5.8 mph SSE9.3 kmh SSE 8.1 mph13.0 kmh 30.18 in1022.0 mb - 0.00 in0.0 mm 0.00 in0.0 mm
02:10 PM 88.7°F31.5°C 54.2°F12.3°C 31% 4.6 mph SE7.4 kmh SE 5.8 mph9.3 kmh 30.18 in1022.0 mb - 0.00 in0.0 mm 0.00 in0.0 mm
02:00 PM 88.2°F31.2°C 52.9°F11.6°C 30% 8.1 mph SE13.0 kmh SE 10.4 mph16.7 kmh 30.18 in1022.0 mb - 0.00 in0.0 mm 0.00 in0.0 mm
01:50 PM 89.1°F31.7°C 54.5°F12.5°C 31% 6.9 mph SE11.1 kmh SE 6.9 mph11.1 kmh 30.18 in1022.0 mb - 0.00 in0.0 mm 0.00 in0.0 mm
01:40 PM 88.2°F31.2°C 54.6°F12.6°C 32% 6.9 mph SSE11.1 kmh SSE 11.5 mph18.5 kmh 30.18 in1022.0 mb - 0.00 in0.0 mm 0.00 in0.0 mm
01:20 PM 76.6°F24.8°C 57.7°F14.3°C 52% Calm Calm -- 30.21 in1023.0 mb - 0.00 in0.0 mm 0.00 in0.0 mm
01:10 PM 76.6°F24.8°C 57.7°F14.3°C 52% Calm Calm -- 30.21 in1023.0 mb - 0.00 in0.0 mm 0.00 in0.0 mm
01:00 PM 76.6°F24.8°C 57.7°F14.3°C 52% Calm Calm -- 30.21 in1023.0 mb - 0.00 in0.0 mm 0.00 in0.0 mm
12:50 PM 76.6°F24.8°C 57.7°F14.3°C 52% Calm Calm -- 30.21 in1023.0 mb - 0.00 in0.0 mm 0.00 in0.0 mm
12:40 PM 76.6°F24.8°C 57.7°F14.3°C 52% Calm Calm -- 30.21 in1023.0 mb - 0.00 in0.0 mm 0.00 in0.0 mm
12:30 PM 76.6°F24.8°C 57.7°F14.3°C 52% Calm Calm -- 30.21 in1023.0 mb - 0.00 in0.0 mm 0.00 in0.0 mm
12:20 PM 76.6°F24.8°C 57.7°F14.3°C 52% Calm Calm -- 30.21 in1023.0 mb - 0.00 in0.0 mm 0.00 in0.0 mm
12:10 PM 76.6°F24.8°C 57.7°F14.3°C 52% Calm Calm -- 30.21 in1023.0 mb - 0.00 in0.0 mm 0.00 in0.0 mm
12:00 PM 76.6°F24.8°C 57.7°F14.3°C 52% Calm Calm -- 30.21 in1023.0 mb - 0.00 in0.0 mm 0.00 in0.0 mm
11:50 AM 76.6°F24.8°C 57.7°F14.3°C 52% Calm Calm -- 30.21 in1023.0 mb - 0.00 in0.0 mm 0.00 in0.0 mm
11:40 AM 76.6°F24.8°C 57.7°F14.3°C 52% Calm Calm -- 30.21 in1023.0 mb - 0.00 in0.0 mm 0.00 in0.0 mm
11:30 AM 76.6°F24.8°C 57.7°F14.3°C 52% Calm Calm -- 30.21 in1023.0 mb - 0.00 in0.0 mm 0.00 in0.0 mm
11:20 AM 76.6°F24.8°C 57.7°F14.3°C 52% Calm Calm -- 30.21 in1023.0 mb - 0.00 in0.0 mm 0.00 in0.0 mm
11:10 AM 76.6°F24.8°C 57.7°F14.3°C 52% Calm Calm -- 30.21 in1023.0 mb - 0.00 in0.0 mm 0.00 in0.0 mm
11:00 AM 76.6°F24.8°C 57.7°F14.3°C 52% Calm Calm -- 30.21 in1023.0 mb - 0.00 in0.0 mm 0.00 in0.0 mm
10:50 AM 76.6°F24.8°C 57.7°F14.3°C 52% Calm Calm -- 30.21 in1023.0 mb - 0.00 in0.0 mm 0.00 in0.0 mm
10:40 AM 76.6°F24.8°C 57.7°F14.3°C 52% Calm Calm -- 30.21 in1023.0 mb - 0.00 in0.0 mm 0.00 in0.0 mm
10:30 AM 76.6°F24.8°C 57.7°F14.3°C 52% Calm Calm -- 30.21 in1023.0 mb - 0.00 in0.0 mm 0.00 in0.0 mm
10:20 AM 76.6°F24.8°C 57.7°F14.3°C 52% Calm Calm -- 30.21 in1023.0 mb - 0.00 in0.0 mm 0.00 in0.0 mm
10:10 AM 76.6°F24.8°C 57.7°F14.3°C 52% Calm Calm -- 30.21 in1023.0 mb - 0.00 in0.0 mm 0.00 in0.0 mm
10:00 AM 76.6°F24.8°C 57.7°F14.3°C 52% Calm Calm -- 30.21 in1023.0 mb - 0.00 in0.0 mm 0.00 in0.0 mm
09:50 AM 76.6°F24.8°C 57.7°F14.3°C 52% Calm Calm -- 30.21 in1023.0 mb - 0.00 in0.0 mm 0.00 in0.0 mm
09:30 AM 74.1°F23.4°C 56.4°F13.6°C 54% 2.3 mph SW3.7 kmh SW 3.5 mph5.6 kmh 30.21 in1023.0 mb - 0.00 in0.0 mm 0.00 in0.0 mm
09:20 AM 72.9°F22.7°C 56.2°F13.4°C 56% Calm Calm -- 30.21 in1023.0 mb - 0.00 in0.0 mm 0.00 in0.0 mm
09:10 AM 72.3°F22.4°C 56.7°F13.7°C 58% Calm Calm -- 30.21 in1023.0 mb - 0.00 in0.0 mm 0.00 in0.0 mm
09:00 AM 70.7°F21.5°C 56.6°F13.7°C 61% Calm Calm -- 30.21 in1023.0 mb - 0.00 in0.0 mm 0.00 in0.0 mm
08:50 AM 69.2°F20.7°C 56.5°F13.6°C 64% Calm Calm -- 30.21 in1023.0 mb - 0.00 in0.0 mm 0.00 in0.0 mm
08:40 AM 67.8°F19.9°C 56.8°F13.8°C 68% Calm Calm -- 30.21 in1023.0 mb - 0.00 in0.0 mm 0.00 in0.0 mm
08:30 AM 66.1°F18.9°C 56.4°F13.6°C 71% Calm Calm -- 30.21 in1023.0 mb - 0.00 in0.0 mm 0.00 in0.0 mm
08:20 AM 64.8°F18.2°C 56.6°F13.7°C 75% Calm Calm -- 30.21 in1023.0 mb - 0.00 in0.0 mm 0.00 in0.0 mm
08:10 AM 63.3°F17.4°C 56.3°F13.5°C 78% Calm Calm -- 30.21 in1023.0 mb - 0.00 in0.0 mm 0.00 in0.0 mm
08:00 AM 62.3°F16.8°C 56.4°F13.6°C 81% Calm Calm -- 30.21 in1023.0 mb - 0.00 in0.0 mm 0.00 in0.0 mm
07:50 AM 61.2°F16.2°C 56.0°F13.3°C 83% Calm Calm -- 30.21 in1023.0 mb - 0.00 in0.0 mm 0.00 in0.0 mm
07:40 AM 60.0°F15.6°C 56.5°F13.6°C 88% Calm Calm -- 30.21 in1023.0 mb - 0.00 in0.0 mm 0.00 in0.0 mm
07:30 AM 58.7°F14.8°C 55.8°F13.2°C 90% Calm Calm -- 30.21 in1023.0 mb - 0.00 in0.0 mm 0.00 in0.0 mm
07:20 AM 57.7°F14.3°C 54.8°F12.7°C 90% Calm Calm -- 30.21 in1023.0 mb - 0.00 in0.0 mm 0.00 in0.0 mm
07:10 AM 57.0°F13.9°C 54.1°F12.3°C 90% Calm Calm -- 30.21 in1023.0 mb - 0.00 in0.0 mm 0.00 in0.0 mm
07:00 AM 56.4°F13.6°C 53.5°F11.9°C 90% Calm Calm -- 30.21 in1023.0 mb - 0.00 in0.0 mm 0.00 in0.0 mm
06:50 AM 55.9°F13.3°C 53.4°F11.9°C 91% Calm Calm -- 30.24 in1024.0 mb - 0.00 in0.0 mm 0.00 in0.0 mm
06:40 AM 55.6°F13.1°C 53.0°F11.7°C 91% Calm Calm -- 30.21 in1023.0 mb - 0.00 in0.0 mm 0.00 in0.0 mm
06:30 AM 55.6°F13.1°C 52.7°F11.5°C 90% Calm Calm -- 30.21 in1023.0 mb - 0.00 in0.0 mm 0.00 in0.0 mm
06:20 AM 55.4°F13.0°C 52.5°F11.4°C 90% Calm Calm -- 30.21 in1023.0 mb - 0.00 in0.0 mm 0.00 in0.0 mm
06:10 AM 55.0°F12.8°C 51.9°F11.1°C 89% Calm Calm -- 30.21 in1023.0 mb - 0.00 in0.0 mm 0.00 in0.0 mm
06:00 AM 54.7°F12.6°C 51.2°F10.7°C 88% Calm Calm -- 30.21 in1023.0 mb - 0.00 in0.0 mm 0.00 in0.0 mm
05:50 AM 54.7°F12.6°C 50.9°F10.5°C 87% Calm Calm -- 30.21 in1023.0 mb - 0.00 in0.0 mm 0.00 in0.0 mm
05:40 AM 54.7°F12.6°C 51.0°F10.6°C 87% Calm Calm -- 30.21 in1023.0 mb - 0.00 in0.0 mm 0.00 in0.0 mm
05:30 AM 55.0°F12.8°C 50.9°F10.5°C 86% Calm Calm -- 30.21 in1023.0 mb - 0.00 in0.0 mm 0.00 in0.0 mm
05:20 AM 55.3°F12.9°C 51.2°F10.7°C 86% Calm Calm -- 30.21 in1023.0 mb - 0.00 in0.0 mm 0.00 in0.0 mm
05:10 AM 55.8°F13.2°C 51.6°F10.9°C 86% Calm Calm -- 30.21 in1023.0 mb - 0.00 in0.0 mm 0.00 in0.0 mm
05:00 AM 55.9°F13.3°C 51.5°F10.8°C 85% Calm Calm -- 30.21 in1023.0 mb - 0.00 in0.0 mm 0.00 in0.0 mm
04:50 AM 56.1°F13.4°C 51.7°F10.9°C 85% Calm Calm -- 30.21 in1023.0 mb - 0.00 in0.0 mm 0.00 in0.0 mm
04:40 AM 56.4°F13.6°C 52.0°F11.1°C 85% Calm Calm -- 30.21 in1023.0 mb - 0.00 in0.0 mm 0.00 in0.0 mm
04:30 AM 56.7°F13.7°C 52.2°F11.2°C 85% Calm Calm -- 30.21 in1023.0 mb - 0.00 in0.0 mm 0.00 in0.0 mm
04:20 AM 56.8°F13.8°C 52.1°F11.2°C 84% Calm Calm -- 30.21 in1023.0 mb - 0.00 in0.0 mm 0.00 in0.0 mm
04:10 AM 56.8°F13.8°C 52.1°F11.2°C 84% Calm Calm -- 30.21 in1023.0 mb - 0.00 in0.0 mm 0.00 in0.0 mm
04:00 AM 56.8°F13.8°C 52.1°F11.2°C 84% Calm Calm -- 30.21 in1023.0 mb - 0.00 in0.0 mm 0.00 in0.0 mm
03:50 AM 57.0°F13.9°C 51.9°F11.1°C 83% Calm Calm -- 30.21 in1023.0 mb - 0.00 in0.0 mm 0.00 in0.0 mm
03:40 AM 57.2°F14.0°C 52.1°F11.2°C 83% Calm Calm -- 30.21 in1023.0 mb - 0.00 in0.0 mm 0.00 in0.0 mm
03:30 AM 57.4°F14.1°C 51.9°F11.1°C 82% Calm Calm -- 30.21 in1023.0 mb - 0.00 in0.0 mm 0.00 in0.0 mm
03:20 AM 57.4°F14.1°C 51.9°F11.1°C 82% Calm Calm -- 30.21 in1023.0 mb - 0.00 in0.0 mm 0.00 in0.0 mm
03:10 AM 57.6°F14.2°C 52.1°F11.2°C 82% Calm Calm -- 30.21 in1023.0 mb - 0.00 in0.0 mm 0.00 in0.0 mm
03:00 AM 57.9°F14.4°C 52.5°F11.4°C 82% Calm Calm -- 30.21 in1023.0 mb - 0.00 in0.0 mm 0.00 in0.0 mm
02:50 AM 58.3°F14.6°C 52.5°F11.4°C 81% Calm Calm -- 30.21 in1023.0 mb - 0.00 in0.0 mm 0.00 in0.0 mm
02:40 AM 58.5°F14.7°C 52.6°F11.4°C 81% Calm Calm -- 30.21 in1023.0 mb - 0.00 in0.0 mm 0.00 in0.0 mm
02:30 AM 58.6°F14.8°C 52.1°F11.2°C 79% Calm Calm -- 30.21 in1023.0 mb - 0.00 in0.0 mm 0.00 in0.0 mm
02:20 AM 58.6°F14.8°C 51.8°F11.0°C 78% Calm Calm -- 30.21 in1023.0 mb - 0.00 in0.0 mm 0.00 in0.0 mm
02:10 AM 59.0°F15.0°C 51.8°F11.0°C 77% Calm Calm -- 30.21 in1023.0 mb - 0.00 in0.0 mm 0.00 in0.0 mm
02:00 AM 59.3°F15.2°C 51.7°F10.9°C 76% 1.2 mph SW1.9 kmh SW 2.3 mph3.7 kmh 30.21 in1023.0 mb - 0.00 in0.0 mm 0.00 in0.0 mm
01:50 AM 59.5°F15.3°C 51.6°F10.9°C 75% Calm Calm -- 30.21 in1023.0 mb - 0.00 in0.0 mm 0.00 in0.0 mm
01:40 AM 59.5°F15.3°C 51.6°F10.9°C 75% Calm Calm -- 30.21 in1023.0 mb - 0.00 in0.0 mm 0.00 in0.0 mm
01:30 AM 59.7°F15.4°C 51.4°F10.8°C 74% Calm Calm -- 30.21 in1023.0 mb - 0.00 in0.0 mm 0.00 in0.0 mm
01:20 AM 59.7°F15.4°C 50.7°F10.4°C 72% Calm Calm -- 30.18 in1022.0 mb - 0.00 in0.0 mm 0.00 in0.0 mm
01:10 AM 59.9°F15.5°C 50.5°F10.3°C 71% Calm Calm -- 30.21 in1023.0 mb - 0.00 in0.0 mm 0.00 in0.0 mm
01:00 AM 60.2°F15.7°C 50.4°F10.2°C 70% Calm Calm -- 30.21 in1023.0 mb - 0.00 in0.0 mm 0.00 in0.0 mm
12:50 AM 60.6°F15.9°C 50.8°F10.4°C 70% Calm Calm -- 30.21 in1023.0 mb - 0.00 in0.0 mm 0.00 in0.0 mm
12:40 AM 61.3°F16.3°C 51.0°F10.6°C 69% Calm Calm -- 30.21 in1023.0 mb - 0.00 in0.0 mm 0.00 in0.0 mm
12:30 AM 61.7°F16.5°C 51.4°F10.8°C 69% Calm Calm 3.5 mph5.6 kmh 30.21 in1023.0 mb - 0.00 in0.0 mm 0.00 in0.0 mm
12:20 AM 61.7°F16.5°C 51.0°F10.6°C 68% Calm Calm -- 30.21 in1023.0 mb - 0.00 in0.0 mm 0.00 in0.0 mm
12:10 AM 61.9°F16.6°C 50.9°F10.5°C 67% Calm Calm -- 30.21 in1023.0 mb - 0.00 in0.0 mm 0.00 in0.0 mm
12:00 AM 62.3°F16.8°C 50.8°F10.4°C 66% Calm Calm -- 30.21 in1023.0 mb - 0.00 in0.0 mm 0.00 in0.0 mm